Time;durP1;ratioP1;P1;durP2;ratioP2;P2;SDS_P1;SDS_P2;PMS_P1;PMS_P2;Temp;Humidity;BMP_temperature;BMP_pressure;BME280_temperature;BME280_humidity;BME280_pressure;Samples;Min_cycle;Max_cycle;Signal;HPM_P1;HPM_P2
2022/03/05 00:00:34;;;;;;;16.75;10.73;;;;;;;;;;5081493;28;20501;-84
2022/03/05 00:03:00;;;;;;;16.65;10.50;;;;;;;;;;5098833;28;20410;-84
2022/03/05 00:05:26;;;;;;;15.68;9.85;;;;;;;;;;5080800;28;20096;-84
2022/03/05 00:07:52;;;;;;;18.52;10.63;;;;;;;;;;5081062;28;20084;-84
2022/03/05 00:10:19;;;;;;;20.65;11.05;;;;;;;;;;5080449;28;20510;-85
2022/03/05 00:12:49;;;;;;;18.27;10.65;;;;;;;;;;5063835;28;20036;-84
2022/03/05 00:15:16;;;;;;;19.85;11.20;;;;;;;;;;5063742;28;20052;-85
2022/03/05 00:17:42;;;;;;;18.42;10.93;;;;;;;;;;5080259;28;20051;-83
2022/03/05 00:20:09;;;;;;;17.35;10.32;;;;;;;;;;5084895;28;20046;-83
2022/03/05 00:22:36;;;;;;;18.52;10.15;;;;;;;;;;5102642;28;20024;-82
2022/03/05 00:25:03;;;;;;;15.73;10.38;;;;;;;;;;5068159;28;20067;-84
2022/03/05 00:27:28;;;;;;;16.48;10.35;;;;;;;;;;5082115;28;20127;-83
2022/03/05 00:29:55;;;;;;;18.48;10.60;;;;;;;;;;5064619;28;20076;-83
2022/03/05 00:32:21;;;;;;;16.25;9.85;;;;;;;;;;5063886;28;20103;-84
2022/03/05 00:34:47;;;;;;;18.85;11.10;;;;;;;;;;5081382;28;20036;-84
2022/03/05 00:37:13;;;;;;;19.05;11.00;;;;;;;;;;5080790;28;20048;-84
2022/03/05 00:39:39;;;;;;;20.00;11.57;;;;;;;;;;5079804;28;20036;-84
2022/03/05 00:42:05;;;;;;;22.48;11.15;;;;;;;;;;5063721;28;20036;-84
2022/03/05 00:44:32;;;;;;;16.90;9.85;;;;;;;;;;5063515;28;20044;-84
2022/03/05 00:46:58;;;;;;;17.75;10.60;;;;;;;;;;5080509;28;20036;-84
2022/03/05 00:49:25;;;;;;;20.60;11.15;;;;;;;;;;5079913;28;20032;-85
2022/03/05 00:51:52;;;;;;;18.05;10.27;;;;;;;;;;5098331;28;20068;-85
2022/03/05 00:54:18;;;;;;;19.48;11.25;;;;;;;;;;5082796;28;20051;-83
2022/03/05 00:56:44;;;;;;;17.23;9.95;;;;;;;;;;5067285;28;20041;-83
2022/03/05 00:59:10;;;;;;;19.13;11.00;;;;;;;;;;5082052;28;20025;-81
2022/03/05 01:01:36;;;;;;;16.63;9.95;;;;;;;;;;5099221;28;20055;-82
2022/03/05 01:04:03;;;;;;;21.05;10.80;;;;;;;;;;5094343;28;20036;-84
2022/03/05 01:06:30;;;;;;;18.17;10.05;;;;;;;;;;5063262;28;20135;-84
2022/03/05 01:08:56;;;;;;;18.17;10.90;;;;;;;;;;5046690;28;20425;-84
2022/03/05 01:11:23;;;;;;;18.35;10.38;;;;;;;;;;5080904;28;20071;-84
2022/03/05 01:13:49;;;;;;;18.02;10.43;;;;;;;;;;5080706;28;20032;-84
2022/03/05 01:16:15;;;;;;;18.77;10.20;;;;;;;;;;5062428;28;20040;-84
2022/03/05 01:18:41;;;;;;;16.23;10.38;;;;;;;;;;5063016;28;20047;-84
2022/03/05 01:21:07;;;;;;;18.50;10.45;;;;;;;;;;5062533;28;20040;-84
2022/03/05 01:23:33;;;;;;;17.55;9.52;;;;;;;;;;5061914;28;20123;-84
2022/03/05 01:25:59;;;;;;;18.52;10.52;;;;;;;;;;5062461;28;20040;-85
2022/03/05 01:28:25;;;;;;;17.30;9.85;;;;;;;;;;5062538;28;20033;-84
2022/03/05 01:30:51;;;;;;;19.52;10.23;;;;;;;;;;5044101;28;20364;-84
2022/03/05 01:33:17;;;;;;;19.77;10.75;;;;;;;;;;5045696;28;20033;-84
2022/03/05 01:35:44;;;;;;;16.30;9.65;;;;;;;;;;5045090;28;20066;-84
2022/03/05 01:38:10;;;;;;;20.20;10.35;;;;;;;;;;5061870;28;20062;-84
2022/03/05 01:40:36;;;;;;;18.33;10.23;;;;;;;;;;5044746;28;20037;-84
2022/03/05 01:43:02;;;;;;;19.75;10.90;;;;;;;;;;5044556;28;20135;-84
2022/03/05 01:45:28;;;;;;;19.52;11.25;;;;;;;;;;5044865;28;20108;-83
2022/03/05 01:47:54;;;;;;;16.60;9.93;;;;;;;;;;5061231;28;20036;-84
2022/03/05 01:50:21;;;;;;;16.23;9.88;;;;;;;;;;5061063;28;20473;-84
2022/03/05 01:52:47;;;;;;;18.33;9.52;;;;;;;;;;5078763;28;20032;-85
2022/03/05 01:55:13;;;;;;;18.50;9.77;;;;;;;;;;5061381;28;20040;-83
2022/03/05 01:57:39;;;;;;;15.10;9.23;;;;;;;;;;5044228;28;20518;-83
2022/03/05 02:00:06;;;;;;;17.30;9.00;;;;;;;;;;5044407;28;20135;-83
2022/03/05 02:02:32;;;;;;;20.33;10.60;;;;;;;;;;5044287;28;20532;-84
2022/03/05 02:04:58;;;;;;;16.02;9.55;;;;;;;;;;5044309;28;20043;-83
2022/03/05 02:07:24;;;;;;;16.20;9.65;;;;;;;;;;5061057;28;20036;-84
2022/03/05 02:09:51;;;;;;;18.73;9.90;;;;;;;;;;5060906;28;20113;-84
2022/03/05 02:12:17;;;;;;;16.58;9.43;;;;;;;;;;5060512;28;20028;-84
2022/03/05 02:14:43;;;;;;;17.20;8.95;;;;;;;;;;5044420;28;20052;-84
2022/03/05 02:17:10;;;;;;;16.17;9.63;;;;;;;;;;5060460;28;20040;-84
2022/03/05 02:19:36;;;;;;;16.15;9.48;;;;;;;;;;5039458;28;20041;-85
2022/03/05 02:22:02;;;;;;;16.27;9.95;;;;;;;;;;5040336;28;20048;-84
2022/03/05 02:24:31;;;;;;;14.85;8.80;;;;;;;;;;5040662;28;20037;-84
2022/03/05 02:27:02;;;;;;;16.90;9.88;;;;;;;;;;5058827;28;20495;-85
2022/03/05 02:29:29;;;;;;;17.38;9.82;;;;;;;;;;5041534;28;20092;-83
2022/03/05 02:31:55;;;;;;;16.48;9.52;;;;;;;;;;5040756;28;20119;-84
2022/03/05 02:34:22;;;;;;;17.17;9.15;;;;;;;;;;5041809;28;20037;-85
2022/03/05 02:36:48;;;;;;;16.90;9.88;;;;;;;;;;5041026;28;20205;-84
2022/03/05 02:39:14;;;;;;;18.80;9.55;;;;;;;;;;5039507;28;20045;-84
2022/03/05 02:41:40;;;;;;;14.52;8.55;;;;;;;;;;5039856;28;20041;-85
2022/03/05 02:44:06;;;;;;;18.05;9.18;;;;;;;;;;5040420;28;20052;-84
2022/03/05 02:46:34;;;;;;;17.15;9.27;;;;;;;;;;5056392;28;20049;-85
2022/03/05 02:49:00;;;;;;;14.85;8.10;;;;;;;;;;5056953;28;20063;-84
2022/03/05 02:51:26;;;;;;;15.63;8.95;;;;;;;;;;5040005;28;20037;-85
2022/03/05 02:53:52;;;;;;;16.95;9.00;;;;;;;;;;5042652;28;20094;-85
2022/03/05 02:56:18;;;;;;;19.95;9.75;;;;;;;;;;5046908;28;20124;-84
2022/03/05 02:58:44;;;;;;;14.32;8.30;;;;;;;;;;5047652;28;20040;-84
2022/03/05 03:01:10;;;;;;;14.15;8.75;;;;;;;;;;5046608;28;20143;-84
2022/03/05 03:03:36;;;;;;;17.13;8.50;;;;;;;;;;5046315;28;20041;-85
2022/03/05 03:06:02;;;;;;;14.30;8.70;;;;;;;;;;5045250;28;20419;-85
2022/03/05 03:08:28;;;;;;;15.48;8.63;;;;;;;;;;5045414;28;20041;-84
2022/03/05 03:10:54;;;;;;;16.70;8.73;;;;;;;;;;5044933;28;20380;-84
2022/03/05 03:13:20;;;;;;;13.25;8.30;;;;;;;;;;5045484;28;20037;-84
2022/03/05 03:15:46;;;;;;;19.83;9.18;;;;;;;;;;5063287;28;20056;-84
2022/03/05 03:18:12;;;;;;;16.17;8.57;;;;;;;;;;5045670;28;20052;-85
2022/03/05 03:20:38;;;;;;;16.77;9.07;;;;;;;;;;5045281;28;20044;-84
2022/03/05 03:23:05;;;;;;;14.95;8.65;;;;;;;;;;5045148;28;20041;-85
2022/03/05 03:25:31;;;;;;;18.85;8.73;;;;;;;;;;5044978;28;20052;-85
2022/03/05 03:27:57;;;;;;;13.25;8.55;;;;;;;;;;5059772;28;20029;-84
2022/03/05 03:30:23;;;;;;;17.30;8.68;;;;;;;;;;5075563;28;20028;-84
2022/03/05 03:32:49;;;;;;;18.05;8.82;;;;;;;;;;5084876;28;20039;-85
2022/03/05 03:35:16;;;;;;;14.75;8.77;;;;;;;;;;5068944;28;20528;-84
2022/03/05 03:37:42;;;;;;;15.60;8.25;;;;;;;;;;5085597;28;20061;-85
2022/03/05 03:40:09;;;;;;;14.32;7.18;;;;;;;;;;5068176;28;20036;-84
2022/03/05 03:42:36;;;;;;;17.20;8.82;;;;;;;;;;5068910;28;20044;-84
2022/03/05 03:45:02;;;;;;;16.02;8.93;;;;;;;;;;5085620;28;20051;-84
2022/03/05 03:47:28;;;;;;;14.75;8.73;;;;;;;;;;5085625;28;20036;-83
2022/03/05 03:49:54;;;;;;;15.55;8.75;;;;;;;;;;5085694;28;20043;-84
2022/03/05 03:52:20;;;;;;;15.75;8.57;;;;;;;;;;5103128;28;20040;-84
2022/03/05 03:54:47;;;;;;;16.33;8.30;;;;;;;;;;5086059;28;20114;-84
2022/03/05 03:57:14;;;;;;;15.25;8.75;;;;;;;;;;5069710;28;20398;-84
2022/03/05 03:59:40;;;;;;;14.20;8.20;;;;;;;;;;5086335;28;20065;-85
2022/03/05 04:02:06;;;;;;;15.07;7.55;;;;;;;;;;5069214;28;20036;-85
2022/03/05 04:04:32;;;;;;;18.42;8.30;;;;;;;;;;5068963;28;20051;-84
2022/03/05 04:09:43;;;;;;;15.70;7.88;;;;;;;;;;5082585;28;20056;-85
2022/03/05 04:12:09;;;;;;;15.07;8.13;;;;;;;;;;5081924;28;20040;-84
2022/03/05 04:14:38;;;;;;;16.35;8.27;;;;;;;;;;5065505;28;20032;-85
2022/03/05 04:17:04;;;;;;;15.32;8.27;;;;;;;;;;5064991;28;20044;-84
2022/03/05 04:19:30;;;;;;;17.38;9.15;;;;;;;;;;5081829;28;20067;-85
2022/03/05 04:21:56;;;;;;;13.82;8.63;;;;;;;;;;5081712;28;20480;-84
2022/03/05 04:24:22;;;;;;;19.33;9.45;;;;;;;;;;5100201;28;20048;-84
2022/03/05 04:26:48;;;;;;;21.17;9.50;;;;;;;;;;5081938;28;20460;-84
2022/03/05 04:29:14;;;;;;;18.10;8.98;;;;;;;;;;5082496;28;20040;-84
2022/03/05 04:31:41;;;;;;;17.27;8.73;;;;;;;;;;5082176;28;20074;-85
2022/03/05 04:34:07;;;;;;;17.67;9.52;;;;;;;;;;5082252;28;20067;-84
2022/03/05 04:36:33;;;;;;;18.55;9.55;;;;;;;;;;5100278;28;20040;-84
2022/03/05 04:38:59;;;;;;;16.50;9.65;;;;;;;;;;5080953;28;20109;-85
2022/03/05 04:41:25;;;;;;;17.23;8.65;;;;;;;;;;5099678;28;20051;-84
2022/03/05 04:43:51;;;;;;;15.45;8.70;;;;;;;;;;5082122;28;20433;-85
2022/03/05 04:46:17;;;;;;;17.40;9.15;;;;;;;;;;5082247;28;20079;-85
2022/03/05 04:48:43;;;;;;;17.42;9.20;;;;;;;;;;5065241;28;20092;-84
2022/03/05 04:51:09;;;;;;;16.70;8.52;;;;;;;;;;5081394;28;20044;-84
2022/03/05 04:53:35;;;;;;;15.25;8.00;;;;;;;;;;5081427;28;20044;-84
2022/03/05 04:56:01;;;;;;;15.70;9.15;;;;;;;;;;5081777;28;20050;-83
2022/03/05 04:58:28;;;;;;;17.27;8.80;;;;;;;;;;5081091;28;20044;-83
2022/03/05 05:00:54;;;;;;;14.98;8.25;;;;;;;;;;5064866;28;20334;-84
2022/03/05 05:03:20;;;;;;;17.73;8.40;;;;;;;;;;5080832;28;20071;-85
2022/03/05 05:05:46;;;;;;;16.48;8.45;;;;;;;;;;5064019;28;20060;-85
2022/03/05 05:08:13;;;;;;;19.17;8.80;;;;;;;;;;5080793;28;20855;-85
2022/03/05 05:10:39;;;;;;;17.38;8.75;;;;;;;;;;5064492;28;20051;-85
2022/03/05 05:13:05;;;;;;;20.92;9.02;;;;;;;;;;5063604;28;20040;-85
2022/03/05 05:15:31;;;;;;;19.70;8.43;;;;;;;;;;5081059;28;20418;-85
2022/03/05 05:17:59;;;;;;;17.48;9.23;;;;;;;;;;5079865;28;20517;-85
2022/03/05 05:20:25;;;;;;;17.20;8.75;;;;;;;;;;5080561;28;20055;-85
2022/03/05 05:22:51;;;;;;;14.98;8.50;;;;;;;;;;5079567;28;20054;-85
2022/03/05 05:25:18;;;;;;;18.58;8.32;;;;;;;;;;5080113;28;20410;-85
2022/03/05 05:27:45;;;;;;;17.42;8.32;;;;;;;;;;5063837;28;20043;-85
2022/03/05 05:30:11;;;;;;;17.65;9.52;;;;;;;;;;5080458;28;20063;-85
2022/03/05 05:32:37;;;;;;;17.15;9.30;;;;;;;;;;5062922;28;20040;-85
2022/03/05 05:35:04;;;;;;;16.65;8.98;;;;;;;;;;5065114;28;20047;-86
2022/03/05 05:37:30;;;;;;;21.65;9.75;;;;;;;;;;5064538;28;20040;-84
2022/03/05 05:39:56;;;;;;;19.25;9.07;;;;;;;;;;5080175;28;20489;-85
2022/03/05 05:42:22;;;;;;;14.75;8.55;;;;;;;;;;5097398;28;20040;-83
2022/03/05 05:44:48;;;;;;;15.32;9.10;;;;;;;;;;5085953;28;20044;-83
2022/03/05 05:47:14;;;;;;;15.73;8.23;;;;;;;;;;5076271;28;20029;-84
2022/03/05 05:49:40;;;;;;;16.40;8.43;;;;;;;;;;5101723;28;20032;-83
2022/03/05 05:52:06;;;;;;;20.08;8.57;;;;;;;;;;5063554;28;20016;-86
2022/03/05 05:54:32;;;;;;;16.13;8.38;;;;;;;;;;5063400;28;20055;-85
2022/03/05 05:56:59;;;;;;;18.33;9.10;;;;;;;;;;5066007;28;20044;-86
2022/03/05 05:59:25;;;;;;;16.95;8.95;;;;;;;;;;5082637;28;20044;-85
2022/03/05 06:01:51;;;;;;;17.45;9.18;;;;;;;;;;5057635;28;20068;-85
2022/03/05 06:04:17;;;;;;;16.55;8.32;;;;;;;;;;5068366;28;20089;-85
2022/03/05 06:06:43;;;;;;;16.42;8.27;;;;;;;;;;5082650;28;20054;-83
2022/03/05 06:09:09;;;;;;;18.55;8.95;;;;;;;;;;5100789;28;20082;-84
2022/03/05 06:11:38;;;;;;;15.77;8.30;;;;;;;;;;5082320;28;20444;-85
2022/03/05 06:14:06;;;;;;;20.05;9.18;;;;;;;;;;5082829;28;20119;-85
2022/03/05 06:16:32;;;;;;;15.82;8.52;;;;;;;;;;5065054;28;20052;-84
2022/03/05 06:18:58;;;;;;;15.05;8.65;;;;;;;;;;5082073;28;20134;-83
2022/03/05 06:21:24;;;;;;;15.68;7.70;;;;;;;;;;5081335;28;20055;-85
2022/03/05 06:23:50;;;;;;;14.15;8.10;;;;;;;;;;5081302;28;20040;-84
2022/03/05 06:26:16;;;;;;;15.93;8.82;;;;;;;;;;5064844;28;20071;-85
2022/03/05 06:28:42;;;;;;;15.43;8.23;;;;;;;;;;5093672;28;20087;-83
2022/03/05 06:31:08;;;;;;;14.38;8.32;;;;;;;;;;5077538;28;20029;-83
2022/03/05 06:33:34;;;;;;;17.50;8.98;;;;;;;;;;5097152;28;20055;-83
2022/03/05 06:36:00;;;;;;;16.38;7.65;;;;;;;;;;5059651;28;20132;-83
2022/03/05 06:38:27;;;;;;;15.15;7.97;;;;;;;;;;5049039;28;20047;-84
2022/03/05 06:40:53;;;;;;;15.15;8.18;;;;;;;;;;5068367;28;20104;-84
2022/03/05 06:43:19;;;;;;;15.77;7.90;;;;;;;;;;5026836;28;20122;-84
2022/03/05 06:45:45;;;;;;;14.23;8.50;;;;;;;;;;5039579;28;20048;-84
2022/03/05 06:48:11;;;;;;;14.93;8.13;;;;;;;;;;5057242;28;20465;-84
2022/03/05 06:50:37;;;;;;;15.88;8.30;;;;;;;;;;5053331;28;20400;-85
2022/03/05 06:53:06;;;;;;;14.35;7.63;;;;;;;;;;5054318;28;20039;-85
2022/03/05 06:55:32;;;;;;;14.10;7.63;;;;;;;;;;5037936;28;20044;-83
2022/03/05 06:57:59;;;;;;;16.25;8.63;;;;;;;;;;5048148;28;20486;-84
2022/03/05 07:00:25;;;;;;;13.35;7.45;;;;;;;;;;5052833;28;20040;-84
2022/03/05 07:02:51;;;;;;;17.17;9.45;;;;;;;;;;5037554;28;20128;-85
2022/03/05 07:05:17;;;;;;;15.75;8.85;;;;;;;;;;5049745;28;20072;-85
2022/03/05 07:07:43;;;;;;;15.52;8.70;;;;;;;;;;5039889;28;20044;-86
2022/03/05 07:10:10;;;;;;;15.90;8.90;;;;;;;;;;5082288;28;20039;-84
2022/03/05 07:12:36;;;;;;;15.13;8.93;;;;;;;;;;5081549;28;20047;-85
2022/03/05 07:15:03;;;;;;;16.05;8.75;;;;;;;;;;5064314;28;20093;-84
2022/03/05 07:17:29;;;;;;;17.02;8.82;;;;;;;;;;5082140;28;20060;-87
2022/03/05 07:19:55;;;;;;;17.98;9.35;;;;;;;;;;5062727;28;20482;-87
2022/03/05 07:22:21;;;;;;;17.17;9.48;;;;;;;;;;5045623;28;20039;-86
2022/03/05 07:24:48;;;;;;;17.55;8.82;;;;;;;;;;5065558;28;20486;-86
2022/03/05 07:27:14;;;;;;;15.13;8.77;;;;;;;;;;5065541;28;20043;-87
2022/03/05 07:29:41;;;;;;;23.50;9.45;;;;;;;;;;5082129;28;20464;-85
2022/03/05 07:32:17;;;;;;;16.35;8.63;;;;;;;;;;5052867;28;20383;-86
2022/03/05 07:34:44;;;;;;;17.60;8.55;;;;;;;;;;5044970;28;20028;-86
2022/03/05 07:37:10;;;;;;;15.90;9.93;;;;;;;;;;5059543;28;20052;-87
2022/03/05 07:39:36;;;;;;;16.10;8.80;;;;;;;;;;5082490;28;20243;-87
2022/03/05 07:42:03;;;;;;;19.23;10.88;;;;;;;;;;5074207;28;20044;-85
2022/03/05 07:44:32;;;;;;;17.70;9.27;;;;;;;;;;5046009;28;20037;-86
2022/03/05 07:46:58;;;;;;;22.50;10.13;;;;;;;;;;5052306;28;20040;-86
2022/03/05 07:49:24;;;;;;;14.60;9.40;;;;;;;;;;5037783;28;20062;-88
2022/03/05 07:51:50;;;;;;;17.52;10.23;;;;;;;;;;5053611;28;20040;-86
2022/03/05 07:54:16;;;;;;;19.35;9.95;;;;;;;;;;5038725;28;20066;-87
2022/03/05 07:56:43;;;;;;;18.15;9.63;;;;;;;;;;5038458;28;20051;-86
2022/03/05 07:59:09;;;;;;;18.63;10.60;;;;;;;;;;5054304;28;20516;-85
2022/03/05 08:01:36;;;;;;;16.60;9.85;;;;;;;;;;5052275;28;20040;-87
2022/03/05 08:04:02;;;;;;;17.60;10.30;;;;;;;;;;5053274;28;20122;-85
2022/03/05 08:06:28;;;;;;;18.10;10.95;;;;;;;;;;5060085;28;20041;-84
2022/03/05 08:08:57;;;;;;;17.30;9.63;;;;;;;;;;5049173;28;20063;-84
2022/03/05 08:11:23;;;;;;;17.85;10.13;;;;;;;;;;5054009;28;20041;-84
2022/03/05 08:13:49;;;;;;;18.13;10.75;;;;;;;;;;5058654;28;20667;-84
2022/03/05 08:16:15;;;;;;;17.05;9.43;;;;;;;;;;5070177;28;20241;-85
2022/03/05 08:18:41;;;;;;;18.10;10.80;;;;;;;;;;5066943;28;20051;-83
2022/03/05 08:21:08;;;;;;;16.52;9.57;;;;;;;;;;5084502;28;20036;-86
2022/03/05 08:23:35;;;;;;;16.33;10.48;;;;;;;;;;5067382;28;20043;-83
2022/03/05 08:26:01;;;;;;;20.27;11.15;;;;;;;;;;5102463;28;20516;-84
2022/03/05 08:28:27;;;;;;;16.77;9.90;;;;;;;;;;5083229;28;20040;-83
2022/03/05 08:30:53;;;;;;;16.35;9.43;;;;;;;;;;5084049;28;20047;-86
2022/03/05 08:33:21;;;;;;;17.70;10.65;;;;;;;;;;5062486;28;20037;-83
2022/03/05 08:35:48;;;;;;;18.67;10.20;;;;;;;;;;5051287;28;20068;-83
2022/03/05 08:38:14;;;;;;;16.00;9.68;;;;;;;;;;5050556;28;20449;-83
2022/03/05 08:40:40;;;;;;;18.20;11.30;;;;;;;;;;5059803;28;20071;-82
2022/03/05 08:43:06;;;;;;;16.23;10.18;;;;;;;;;;5083323;28;20050;-84
2022/03/05 08:45:32;;;;;;;16.70;10.43;;;;;;;;;;5101235;28;20044;-84
2022/03/05 08:47:58;;;;;;;18.92;10.63;;;;;;;;;;5082643;28;20040;-83
2022/03/05 08:50:25;;;;;;;18.88;10.73;;;;;;;;;;5083251;28;20075;-84
2022/03/05 08:52:51;;;;;;;15.77;10.77;;;;;;;;;;5064776;28;20064;-83
2022/03/05 08:55:17;;;;;;;19.92;11.55;;;;;;;;;;5100622;28;20051;-84
2022/03/05 08:57:43;;;;;;;16.17;10.98;;;;;;;;;;5066386;28;20044;-83
2022/03/05 09:00:10;;;;;;;18.48;11.40;;;;;;;;;;5060091;28;20080;-84
2022/03/05 09:02:36;;;;;;;21.70;12.18;;;;;;;;;;5067806;28;20065;-84
2022/03/05 09:05:03;;;;;;;21.23;12.43;;;;;;;;;;5065266;28;20528;-85
2022/03/05 09:07:29;;;;;;;17.23;11.43;;;;;;;;;;5067688;28;20037;-83
2022/03/05 09:09:55;;;;;;;17.50;11.93;;;;;;;;;;5076532;28;20024;-85
2022/03/05 09:12:21;;;;;;;19.70;12.75;;;;;;;;;;5062274;28;20017;-83
2022/03/05 09:14:50;;;;;;;18.40;11.85;;;;;;;;;;5061802;28;20054;-87
2022/03/05 09:17:22;;;;;;;17.58;11.32;;;;;;;;;;5053648;28;20044;-85
2022/03/05 09:19:48;;;;;;;18.83;11.77;;;;;;;;;;5069249;28;20041;-84
2022/03/05 09:22:16;;;;;;;16.23;11.75;;;;;;;;;;5030610;28;20044;-85
2022/03/05 09:24:43;;;;;;;18.98;12.07;;;;;;;;;;5034971;28;20045;-85
2022/03/05 09:27:12;;;;;;;18.58;12.57;;;;;;;;;;5047061;28;20040;-85
2022/03/05 09:29:40;;;;;;;20.13;13.18;;;;;;;;;;5052548;28;20040;-85
2022/03/05 09:32:08;;;;;;;19.15;11.95;;;;;;;;;;5035877;28;20040;-84
2022/03/05 09:34:34;;;;;;;18.38;12.20;;;;;;;;;;5050435;28;20037;-85
2022/03/05 09:37:03;;;;;;;19.35;12.70;;;;;;;;;;5032643;28;20036;-86
2022/03/05 09:39:30;;;;;;;19.83;13.10;;;;;;;;;;5034493;28;20098;-85
2022/03/05 09:41:56;;;;;;;20.25;13.30;;;;;;;;;;5037232;28;20041;-85
2022/03/05 09:44:22;;;;;;;20.00;12.20;;;;;;;;;;5049795;28;20036;-85
2022/03/05 09:46:48;;;;;;;16.85;11.88;;;;;;;;;;5049489;28;20044;-86
2022/03/05 09:49:14;;;;;;;21.50;13.80;;;;;;;;;;5043101;28;20036;-87
2022/03/05 09:51:40;;;;;;;20.25;13.93;;;;;;;;;;5056976;28;20036;-85
2022/03/05 09:54:06;;;;;;;18.45;13.63;;;;;;;;;;5053703;28;20043;-85
2022/03/05 09:56:32;;;;;;;21.08;14.77;;;;;;;;;;5039081;28;20076;-84
2022/03/05 09:58:58;;;;;;;19.95;13.43;;;;;;;;;;5052359;28;20041;-84
2022/03/05 10:01:25;;;;;;;18.83;13.80;;;;;;;;;;5032044;28;20123;-85
2022/03/05 10:03:52;;;;;;;19.45;13.38;;;;;;;;;;5030067;28;20032;-85
2022/03/05 10:06:28;;;;;;;19.65;13.23;;;;;;;;;;5024748;28;20041;-86
2022/03/05 10:08:58;;;;;;;18.38;13.65;;;;;;;;;;5049609;28;20032;-86
2022/03/05 10:11:25;;;;;;;23.48;14.77;;;;;;;;;;5030683;28;20045;-84
2022/03/05 10:13:51;;;;;;;22.35;14.27;;;;;;;;;;5055378;28;20040;-84
2022/03/05 10:16:32;;;;;;;19.42;14.32;;;;;;;;;;5044092;28;20044;-84
2022/03/05 10:19:15;;;;;;;18.80;13.80;;;;;;;;;;5041104;28;20044;-87
2022/03/05 10:21:54;;;;;;;19.95;14.15;;;;;;;;;;5061876;28;20036;-88
2022/03/05 10:24:29;;;;;;;19.23;14.18;;;;;;;;;;5026508;28;20189;-84
2022/03/05 10:26:57;;;;;;;20.90;14.13;;;;;;;;;;5024429;28;20044;-84
2022/03/05 10:29:24;;;;;;;18.67;14.57;;;;;;;;;;5041408;28;20033;-85
2022/03/05 10:31:57;;;;;;;20.60;14.40;;;;;;;;;;5035019;28;20033;-84
2022/03/05 10:34:23;;;;;;;20.50;14.23;;;;;;;;;;5026024;28;20033;-84
2022/03/05 10:37:00;;;;;;;19.00;13.48;;;;;;;;;;5027610;28;20090;-86
2022/03/05 10:39:26;;;;;;;20.58;15.20;;;;;;;;;;5043025;28;20461;-84
2022/03/05 10:41:54;;;;;;;20.58;13.90;;;;;;;;;;5029173;28;20106;-84
2022/03/05 10:44:21;;;;;;;19.92;14.35;;;;;;;;;;5037544;28;20043;-85
2022/03/05 10:47:00;;;;;;;21.63;15.20;;;;;;;;;;5055281;28;20044;-85
2022/03/05 10:49:31;;;;;;;19.48;14.55;;;;;;;;;;5047223;28;20112;-85
2022/03/05 10:52:00;;;;;;;20.27;14.63;;;;;;;;;;5070648;28;20045;-81
2022/03/05 10:54:30;;;;;;;17.90;14.60;;;;;;;;;;5077602;28;20056;-85
2022/03/05 10:57:17;;;;;;;20.55;14.85;;;;;;;;;;5054424;28;20040;-86
2022/03/05 10:59:47;;;;;;;18.13;14.10;;;;;;;;;;5018644;28;20045;-88
2022/03/05 11:02:17;;;;;;;20.85;14.70;;;;;;;;;;5044507;28;20098;-87
2022/03/05 11:04:43;;;;;;;21.27;15.43;;;;;;;;;;5053109;28;20043;-87
2022/03/05 11:07:10;;;;;;;20.13;15.23;;;;;;;;;;5046950;28;20388;-87
2022/03/05 11:09:37;;;;;;;20.90;15.27;;;;;;;;;;5068176;28;20058;-88
2022/03/05 11:12:04;;;;;;;20.75;14.93;;;;;;;;;;5074168;28;20448;-87
2022/03/05 11:14:30;;;;;;;20.27;15.45;;;;;;;;;;5061707;28;20032;-88
2022/03/05 11:16:59;;;;;;;21.02;15.45;;;;;;;;;;5062476;28;20075;-88
2022/03/05 11:19:30;;;;;;;19.33;15.60;;;;;;;;;;5061289;28;20037;-87
2022/03/05 11:21:56;;;;;;;20.85;15.20;;;;;;;;;;5061847;28;20044;-88
2022/03/05 11:24:24;;;;;;;21.63;15.93;;;;;;;;;;5043753;28;20052;-86
2022/03/05 11:27:22;;;;;;;20.27;15.25;;;;;;;;;;5091369;28;20040;-88
2022/03/05 11:30:01;;;;;;;19.67;15.05;;;;;;;;;;5046895;28;20040;-89
2022/03/05 11:32:31;;;;;;;18.65;14.68;;;;;;;;;;5043916;28;20048;-89
2022/03/05 11:35:05;;;;;;;20.40;14.98;;;;;;;;;;5050156;28;20317;-88
2022/03/05 11:37:35;;;;;;;19.33;14.55;;;;;;;;;;5028917;28;20503;-88
2022/03/05 11:40:03;;;;;;;20.98;16.20;;;;;;;;;;5057541;28;20040;-88
2022/03/05 11:42:30;;;;;;;20.98;16.13;;;;;;;;;;5037623;28;20032;-89
2022/03/05 11:44:57;;;;;;;20.58;15.65;;;;;;;;;;5039090;28;20040;-88
2022/03/05 11:47:29;;;;;;;20.80;16.15;;;;;;;;;;5051118;28;20033;-87
2022/03/05 11:50:01;;;;;;;20.00;15.32;;;;;;;;;;5056048;28;20088;-87
2022/03/05 11:52:43;;;;;;;17.70;14.32;;;;;;;;;;5055156;28;20410;-87
2022/03/05 11:55:14;;;;;;;22.10;16.15;;;;;;;;;;5051088;28;20036;-87
2022/03/05 11:58:06;;;;;;;;;;;;;;;;;;;;;
2022/03/05 12:00:56;;;;;;;;;;;;;;;;;;;;;
2022/03/05 12:03:39;;;;;;;21.73;15.52;;;;;;;;;;5093897;28;20040;-84
2022/03/05 12:09:03;;;;;;;20.80;15.50;;;;;;;;;;5068939;28;20097;-88
2022/03/05 12:11:29;;;;;;;20.38;15.82;;;;;;;;;;5056658;28;20043;-88
2022/03/05 12:13:58;;;;;;;21.98;16.02;;;;;;;;;;5039582;28;20073;-88
2022/03/05 12:16:28;;;;;;;22.58;16.27;;;;;;;;;;5051190;28;20037;-89
2022/03/05 12:18:58;;;;;;;18.23;14.77;;;;;;;;;;5035964;28;20036;-88
2022/03/05 12:21:28;;;;;;;18.63;15.75;;;;;;;;;;5038804;28;20048;-86
2022/03/05 12:24:08;;;;;;;;;;;;;;;;;;;;;
2022/03/05 12:26:51;;;;;;;21.13;15.77;;;;;;;;;;5053211;28;20506;-89
2022/03/05 12:29:20;;;;;;;22.25;16.73;;;;;;;;;;5051157;28;20080;-87
2022/03/05 12:31:51;;;;;;;23.35;16.42;;;;;;;;;;5055953;28;20052;-88
2022/03/05 12:34:20;;;;;;;22.58;17.10;;;;;;;;;;5036478;28;20143;-88
2022/03/05 12:36:52;;;;;;;23.38;17.88;;;;;;;;;;5049261;28;20036;-87
2022/03/05 12:39:26;;;;;;;21.75;17.02;;;;;;;;;;5045623;28;20037;-89
2022/03/05 12:42:06;;;;;;;20.75;16.25;;;;;;;;;;5043211;28;20044;-88
2022/03/05 12:44:36;;;;;;;22.35;16.60;;;;;;;;;;5043163;28;20127;-88
2022/03/05 12:47:06;;;;;;;21.33;16.80;;;;;;;;;;5042399;28;20045;-88
2022/03/05 12:49:38;;;;;;;19.98;16.90;;;;;;;;;;5034266;28;20576;-88
2022/03/05 12:52:06;;;;;;;21.00;16.70;;;;;;;;;;5049848;28;20040;-88
2022/03/05 12:54:33;;;;;;;19.58;16.30;;;;;;;;;;5031209;28;20131;-87
2022/03/05 12:56:59;;;;;;;20.77;16.63;;;;;;;;;;5055405;28;20043;-89
2022/03/05 12:59:28;;;;;;;21.48;16.73;;;;;;;;;;5045057;28;20060;-88
2022/03/05 13:02:03;;;;;;;22.17;16.95;;;;;;;;;;5056306;28;20877;-87
2022/03/05 13:04:29;;;;;;;20.00;16.70;;;;;;;;;;5064905;28;20037;-86
2022/03/05 13:07:00;;;;;;;19.08;15.90;;;;;;;;;;5047681;28;20043;-87
2022/03/05 13:09:34;;;;;;;21.42;16.02;;;;;;;;;;5052577;28;20056;-87
2022/03/05 13:12:01;;;;;;;19.67;16.50;;;;;;;;;;5033848;28;20036;-88
2022/03/05 13:14:27;;;;;;;19.50;16.23;;;;;;;;;;5035125;28;20037;-88
2022/03/05 13:16:56;;;;;;;21.80;16.35;;;;;;;;;;5034755;28;20039;-88
2022/03/05 13:19:23;;;;;;;20.88;16.67;;;;;;;;;;5050759;28;20040;-89
2022/03/05 13:21:51;;;;;;;20.48;16.60;;;;;;;;;;5030412;28;20036;-88
2022/03/05 13:24:30;;;;;;;20.50;16.60;;;;;;;;;;5029360;28;20037;-88
2022/03/05 13:27:00;;;;;;;20.90;16.38;;;;;;;;;;5052214;28;20100;-88
2022/03/05 13:29:26;;;;;;;20.48;16.23;;;;;;;;;;5049316;28;20112;-89
2022/03/05 13:32:02;;;;;;;18.10;15.82;;;;;;;;;;5050284;28;20518;-87
2022/03/05 13:34:29;;;;;;;18.73;15.60;;;;;;;;;;5046425;28;20410;-85
2022/03/05 13:37:09;;;;;;;19.17;16.58;;;;;;;;;;5030372;28;20578;-88
2022/03/05 13:39:36;;;;;;;19.38;16.08;;;;;;;;;;5050321;28;20383;-88
2022/03/05 13:42:10;;;;;;;18.85;15.85;;;;;;;;;;5033977;28;20040;-89
2022/03/05 13:44:46;;;;;;;20.10;16.85;;;;;;;;;;5053824;28;20044;-88
2022/03/05 13:47:17;;;;;;;18.30;15.88;;;;;;;;;;5040098;28;20045;-88
2022/03/05 13:49:47;;;;;;;19.30;16.08;;;;;;;;;;5048619;28;20045;-86
2022/03/05 13:52:25;;;;;;;18.20;15.00;;;;;;;;;;5033110;28;20457;-87
2022/03/05 13:54:54;;;;;;;17.73;15.15;;;;;;;;;;5036752;28;20056;-86
2022/03/05 13:57:34;;;;;;;19.30;15.85;;;;;;;;;;5051552;28;20124;-88
2022/03/05 14:00:09;;;;;;;20.27;16.02;;;;;;;;;;5043870;28;20079;-87
2022/03/05 14:02:47;;;;;;;20.23;16.23;;;;;;;;;;5076507;28;20135;-82
2022/03/05 14:05:21;;;;;;;18.73;15.88;;;;;;;;;;5051427;28;20041;-90
2022/03/05 14:07:56;;;;;;;17.65;15.25;;;;;;;;;;5043970;28;20043;-89
2022/03/05 14:10:23;;;;;;;19.90;16.13;;;;;;;;;;5042499;28;20032;-87
2022/03/05 14:13:26;;;;;;;19.00;15.80;;;;;;;;;;5033390;28;20048;-89
2022/03/05 14:15:55;;;;;;;19.08;16.35;;;;;;;;;;5042195;28;20436;-89
2022/03/05 14:18:22;;;;;;;20.15;15.77;;;;;;;;;;5038495;28;20069;-87
2022/03/05 14:24:09;;;;;;;19.00;15.30;;;;;;;;;;5038964;28;20052;-87
2022/03/05 14:26:41;;;;;;;18.42;15.65;;;;;;;;;;5060637;28;20513;-89
2022/03/05 14:29:40;;;;;;;18.35;15.90;;;;;;;;;;5048895;28;20100;-89
2022/03/05 14:39:28;;;;;;;17.90;15.82;;;;;;;;;;4975191;28;20413;-90
2022/03/05 14:42:50;;;;;;;18.70;15.40;;;;;;;;;;4948869;28;20047;-91
2022/03/05 14:45:33;;;;;;;17.90;15.45;;;;;;;;;;4939120;28;20055;-89
2022/03/05 14:48:00;;;;;;;18.40;15.45;;;;;;;;;;4939312;28;20042;-79